createdAt,value
2018-04-24T00:00:48.006Z,81.15
2018-04-24T00:01:47.895Z,81.35
2018-04-24T00:02:47.922Z,80.87
2018-04-24T00:03:47.855Z,80.77
2018-04-24T00:04:47.928Z,80.01
2018-04-24T00:05:47.801Z,80.30
2018-04-24T00:06:47.841Z,80.11
2018-04-24T00:07:47.754Z,80.11
2018-04-24T00:08:47.749Z,80.30
2018-04-24T00:09:47.781Z,80.20
2018-04-24T00:10:47.757Z,79.82
2018-04-24T00:11:47.661Z,79.72
2018-04-24T00:12:47.669Z,79.53
2018-04-24T00:13:47.615Z,79.82
2018-04-24T00:14:47.681Z,79.53
2018-04-24T00:15:47.567Z,80.11
2018-04-24T00:16:47.591Z,80.20
2018-04-24T00:17:47.518Z,80.49
2018-04-24T00:18:48.528Z,80.58
2018-04-24T00:19:47.471Z,80.39
2018-04-24T00:20:47.516Z,80.30
2018-04-24T00:21:47.428Z,80.30
2018-04-24T00:22:47.428Z,81.06
2018-04-24T00:23:47.375Z,81.06
2018-04-24T00:24:47.439Z,81.25
2018-04-24T00:25:47.333Z,81.35
2018-04-24T00:26:47.351Z,81.35
2018-04-24T00:27:47.282Z,81.25
2018-04-24T00:28:47.362Z,81.25
2018-04-24T00:29:47.237Z,81.25
2018-04-24T00:30:47.272Z,81.25
2018-04-24T00:31:47.189Z,80.87
2018-04-24T00:32:47.183Z,81.15
2018-04-24T00:33:47.140Z,80.58
2018-04-24T00:34:47.194Z,81.21
2018-04-24T00:35:47.093Z,81.06
2018-04-24T00:36:47.108Z,81.06
2018-04-24T00:37:47.045Z,81.44
2018-04-24T00:38:47.121Z,80.96
2018-04-24T00:39:46.997Z,81.40
2018-04-24T00:40:47.031Z,81.25
2018-04-24T00:41:46.951Z,81.30
2018-04-24T00:42:47.043Z,81.30
2018-04-24T00:43:46.902Z,81.73
2018-04-24T00:44:46.956Z,81.49
2018-04-24T00:45:46.905Z,81.02
2018-04-24T00:46:46.857Z,81.30
2018-04-24T00:47:46.807Z,81.68
2018-04-24T00:48:46.869Z,81.40
2018-04-24T00:49:46.758Z,81.59
2018-04-24T00:50:46.780Z,81.49
2018-04-24T00:51:46.711Z,81.49
2018-04-24T00:52:46.792Z,81.68
2018-04-24T00:53:46.662Z,81.21
2018-04-24T00:54:46.702Z,82.07
2018-04-24T00:55:46.620Z,81.49
2018-04-24T00:56:46.612Z,81.88
2018-04-24T00:57:46.567Z,82.17
2018-04-24T00:58:46.625Z,81.40
2018-04-24T00:59:46.525Z,81.97
2018-04-24T01:00:46.541Z,82.17
2018-04-24T01:01:46.472Z,81.97
2018-04-24T01:02:46.548Z,82.45
2018-04-24T01:03:46.423Z,81.88
2018-04-24T01:04:46.460Z,82.64
2018-04-24T01:05:46.380Z,82.35
2018-04-24T01:06:46.439Z,82.64
2018-04-24T01:07:46.326Z,82.73
2018-04-24T01:08:46.379Z,82.26
2018-04-24T01:09:46.280Z,82.64
2018-04-24T01:10:46.321Z,82.73
2018-04-24T01:11:46.233Z,82.83
2018-04-24T01:12:46.332Z,82.64
2018-04-24T01:13:46.180Z,82.73
2018-04-24T01:14:46.214Z,83.21
2018-04-24T01:15:46.132Z,82.83
2018-04-24T01:16:46.124Z,83.21
2018-04-24T01:17:46.086Z,83.50
2018-04-24T01:18:46.135Z,83.97
2018-04-24T01:19:46.038Z,83.55
2018-04-24T01:20:46.047Z,83.31
2018-04-24T01:21:45.990Z,83.88
2018-04-24T01:22:46.059Z,83.69
2018-04-24T01:23:45.938Z,83.45
2018-04-24T01:24:45.970Z,83.97
2018-04-24T01:25:45.892Z,84.45
2018-04-24T01:26:45.982Z,84.03
2018-04-24T01:27:45.843Z,84.03
2018-04-24T01:28:45.891Z,84.79
2018-04-24T01:29:45.792Z,84.31
2018-04-24T01:30:45.803Z,84.22
2018-04-24T01:31:45.747Z,84.31
2018-04-24T01:32:45.813Z,84.22
2018-04-24T01:33:45.700Z,84.50
2018-04-24T01:34:45.725Z,84.79
2018-04-24T01:35:45.648Z,84.88
2018-04-24T01:36:45.736Z,84.69
2018-04-24T01:37:45.600Z,84.79
2018-04-24T01:38:45.647Z,84.88
2018-04-24T01:39:45.551Z,84.60
2018-04-24T01:40:45.558Z,84.98
2018-04-24T01:41:45.502Z,84.98
2018-04-24T01:42:45.570Z,84.79
2018-04-24T01:43:45.457Z,85.08
2018-04-24T01:44:45.478Z,84.88
2018-04-24T01:45:45.403Z,85.17
2018-04-24T01:46:45.492Z,85.36
2018-04-24T01:47:45.357Z,85.27
2018-04-24T01:48:45.401Z,85.46
2018-04-24T01:49:45.305Z,85.46
2018-04-24T01:50:45.312Z,85.46
2018-04-24T01:51:45.259Z,85.27
2018-04-24T01:52:45.323Z,84.88
2018-04-24T01:53:45.207Z,85.08
2018-04-24T01:54:45.237Z,85.27
2018-04-24T01:55:45.159Z,85.46
2018-04-24T01:56:45.244Z,85.84
2018-04-24T01:57:45.110Z,85.64
2018-04-24T01:58:45.155Z,85.64
2018-04-24T01:59:45.058Z,85.74
2018-04-24T02:00:45.065Z,85.84
2018-04-24T02:01:45.009Z,85.74
2018-04-24T02:02:45.077Z,85.27
2018-04-24T02:03:44.963Z,84.98
2018-04-24T02:04:44.990Z,85.74
2018-04-24T02:05:44.910Z,85.46
2018-04-24T02:06:44.901Z,85.08
2018-04-24T02:07:44.860Z,85.46
2018-04-24T02:08:44.914Z,85.84
2018-04-24T02:09:44.817Z,85.55
2018-04-24T02:10:44.824Z,85.08
2018-04-24T02:11:44.766Z,85.64
2018-04-24T02:12:44.834Z,85.64
2018-04-24T02:13:44.712Z,85.84
2018-04-24T02:14:44.746Z,84.98
2018-04-24T02:15:44.663Z,85.27
2018-04-24T02:16:44.660Z,85.74
2018-04-24T02:17:44.618Z,85.46
2018-04-24T02:18:44.669Z,85.93
2018-04-24T02:19:44.565Z,85.41
2018-04-24T02:20:44.577Z,86.27
2018-04-24T02:21:44.517Z,86.27
2018-04-24T02:22:44.629Z,85.70
2018-04-24T02:23:44.466Z,85.89
2018-04-24T02:24:44.511Z,86.08
2018-04-24T02:25:44.416Z,86.18
2018-04-24T02:26:44.411Z,86.27
2018-04-24T02:27:44.365Z,86.46
2018-04-24T02:28:44.423Z,85.51
2018-04-24T02:29:44.318Z,85.51
2018-04-24T02:30:44.332Z,85.99
2018-04-24T02:31:44.266Z,86.18
2018-04-24T02:32:44.370Z,86.18
2018-04-24T02:33:44.219Z,86.36
2018-04-24T02:34:44.256Z,85.80
2018-04-24T02:35:44.167Z,86.41
2018-04-24T02:36:44.166Z,86.27
2018-04-24T02:37:44.120Z,86.22
2018-04-24T02:38:44.178Z,86.18
2018-04-24T02:39:44.067Z,85.89
2018-04-24T02:40:44.088Z,86.18
2018-04-24T02:41:44.016Z,86.18
2018-04-24T02:42:44.100Z,85.89
2018-04-24T02:43:43.975Z,86.46
2018-04-24T02:44:44.010Z,86.46
2018-04-24T02:45:43.917Z,86.46
2018-04-24T02:46:43.928Z,86.55
2018-04-24T02:47:43.868Z,85.99
2018-04-24T02:48:43.932Z,86.08
2018-04-24T02:49:43.818Z,85.99
2018-04-24T02:50:43.844Z,86.08
2018-04-24T02:51:43.773Z,86.18
2018-04-24T02:52:43.855Z,86.46
2018-04-24T02:53:43.721Z,86.08
2018-04-24T02:54:43.765Z,86.46
2018-04-24T02:55:43.668Z,86.65
2018-04-24T02:56:43.676Z,86.75
2018-04-24T02:57:43.619Z,86.46
2018-04-24T02:58:43.691Z,86.94
2018-04-24T02:59:43.566Z,86.84
2018-04-24T03:00:43.610Z,86.94
2018-04-24T03:01:43.517Z,86.75
2018-04-24T03:02:43.508Z,86.65
2018-04-24T03:03:43.470Z,86.55
2018-04-24T03:04:43.522Z,87.23
2018-04-24T03:05:43.418Z,86.84
2018-04-24T03:06:43.429Z,86.46
2018-04-24T03:07:43.367Z,86.75
2018-04-24T03:08:43.445Z,86.94
2018-04-24T03:09:43.319Z,86.84
2018-04-24T03:10:43.353Z,86.65
2018-04-24T03:11:43.315Z,87.23
2018-04-24T03:12:43.263Z,86.65
2018-04-24T03:13:43.215Z,86.84
2018-04-24T03:14:43.275Z,86.94
2018-04-24T03:15:43.166Z,86.65
2018-04-24T03:16:43.185Z,87.03
2018-04-24T03:17:43.117Z,87.60
2018-04-24T03:18:43.199Z,87.13
2018-04-24T03:19:43.068Z,86.84
2018-04-24T03:20:43.111Z,87.03
2018-04-24T03:21:43.021Z,87.51
2018-04-24T03:22:43.020Z,87.41
2018-04-24T03:23:42.966Z,87.41
2018-04-24T03:24:43.033Z,87.60
2018-04-24T03:25:42.914Z,87.23
2018-04-24T03:26:42.945Z,87.60
2018-04-24T03:27:42.864Z,87.70
2018-04-24T03:28:42.956Z,87.70
2018-04-24T03:29:42.816Z,87.79
2018-04-24T03:30:42.869Z,87.70
2018-04-24T03:31:42.771Z,87.70
2018-04-24T03:32:42.777Z,87.70
2018-04-24T03:33:42.714Z,87.60
2018-04-24T03:34:42.793Z,87.60
2018-04-24T03:35:42.664Z,87.60
2018-04-24T03:36:42.700Z,87.60
2018-04-24T03:37:42.619Z,87.79
2018-04-24T03:38:42.606Z,87.79
2018-04-24T03:39:42.565Z,87.60
2018-04-24T03:40:42.539Z,87.51
2018-04-24T03:41:42.516Z,87.70
2018-04-24T03:42:42.530Z,87.79
2018-04-24T03:43:42.463Z,87.51
2018-04-24T03:44:42.545Z,87.70
2018-04-24T03:45:42.445Z,87.89
2018-04-24T03:46:42.392Z,87.89
2018-04-24T03:47:42.457Z,87.51
2018-04-24T03:48:42.341Z,87.98
2018-04-24T03:49:42.367Z,87.89
2018-04-24T03:50:42.287Z,88.37
2018-04-24T03:51:42.279Z,87.79
2018-04-24T03:52:42.243Z,88.27
2018-04-24T03:53:42.290Z,87.79
2018-04-24T03:54:42.184Z,88.08
2018-04-24T03:55:42.192Z,88.18
2018-04-24T03:56:42.147Z,88.08
2018-04-24T03:57:42.205Z,88.18
2018-04-24T03:58:42.091Z,88.08
2018-04-24T03:59:42.123Z,88.37
2018-04-24T04:00:42.039Z,87.79
2018-04-24T04:01:42.042Z,88.18
2018-04-24T04:02:41.990Z,88.27
2018-04-24T04:03:42.048Z,88.27
2018-04-24T04:04:41.933Z,88.37
2018-04-24T04:05:41.960Z,88.18
2018-04-24T04:06:41.889Z,88.18
2018-04-24T04:07:42.074Z,87.98
2018-04-24T04:08:41.842Z,88.37
2018-04-24T04:09:41.880Z,88.46
2018-04-24T04:10:41.785Z,88.56
2018-04-24T04:11:41.798Z,88.18
2018-04-24T04:12:41.736Z,88.46
2018-04-24T04:13:41.818Z,88.46
2018-04-24T04:14:41.684Z,88.65
2018-04-24T04:15:41.711Z,88.65
2018-04-24T04:16:41.633Z,88.65
2018-04-24T04:17:41.621Z,88.93
2018-04-24T04:18:41.583Z,88.65
2018-04-24T04:19:41.635Z,88.56
2018-04-24T04:20:41.536Z,88.27
2018-04-24T04:21:41.543Z,88.46
2018-04-24T04:22:41.482Z,88.46
2018-04-24T04:23:41.555Z,88.46
2018-04-24T04:24:41.435Z,88.56
2018-04-24T04:25:41.467Z,88.56
2018-04-24T04:26:41.386Z,88.56
2018-04-24T04:27:41.373Z,88.46
2018-04-24T04:28:41.331Z,88.56
2018-04-24T04:29:41.389Z,88.37
2018-04-24T04:30:41.282Z,88.56
2018-04-24T04:31:41.298Z,88.27
2018-04-24T04:32:41.231Z,87.79
2018-04-24T04:33:41.311Z,87.89
2018-04-24T04:34:41.180Z,87.70
2018-04-24T04:35:41.222Z,88.18
2018-04-24T04:36:41.133Z,88.18
2018-04-24T04:37:41.132Z,87.32
2018-04-24T04:38:41.116Z,87.89
2018-04-24T04:39:41.147Z,87.51
2018-04-24T04:40:41.033Z,87.70
2018-04-24T04:41:41.059Z,88.18
2018-04-24T04:42:40.981Z,88.27
2018-04-24T04:43:41.068Z,87.98
2018-04-24T04:44:40.932Z,87.84
2018-04-24T04:45:40.980Z,87.79
2018-04-24T04:46:40.882Z,87.23
2018-04-24T04:47:40.888Z,87.70
2018-04-24T04:48:40.828Z,87.79
2018-04-24T04:49:40.901Z,88.18
2018-04-24T04:50:40.782Z,87.84
2018-04-24T04:51:40.813Z,87.70
2018-04-24T04:52:40.731Z,87.70
2018-04-24T04:53:40.726Z,87.70
2018-04-24T04:54:40.679Z,87.60
2018-04-24T04:55:40.732Z,87.70
2018-04-24T04:56:40.630Z,87.93
2018-04-24T04:57:40.642Z,87.70
2018-04-24T04:58:40.578Z,87.65
2018-04-24T04:59:40.656Z,87.89
2018-04-24T05:00:40.529Z,87.23
2018-04-24T05:01:40.567Z,87.74
2018-04-24T05:02:40.478Z,87.65
2018-04-24T05:03:40.482Z,87.36
2018-04-24T05:04:40.426Z,87.46
2018-04-24T05:05:40.492Z,87.46
2018-04-24T05:06:40.377Z,87.36
2018-04-24T05:07:40.406Z,87.55
2018-04-24T05:08:40.326Z,87.36
2018-04-24T05:09:40.416Z,86.79
2018-04-24T05:10:40.276Z,87.17
2018-04-24T05:11:40.325Z,87.36
2018-04-24T05:12:40.231Z,87.36
2018-04-24T05:13:40.230Z,87.07
2018-04-24T05:14:40.180Z,86.79
2018-04-24T05:15:40.243Z,87.17
2018-04-24T05:16:40.132Z,87.36
2018-04-24T05:17:40.153Z,86.98
2018-04-24T05:18:40.078Z,86.69
2018-04-24T05:19:40.167Z,86.41
2018-04-24T05:20:40.031Z,86.98
2018-04-24T05:21:40.078Z,87.07
2018-04-24T05:22:39.975Z,86.98
2018-04-24T05:23:39.984Z,86.98
2018-04-24T05:24:39.929Z,86.79
2018-04-24T05:25:39.998Z,86.69
2018-04-24T05:26:39.877Z,87.07
2018-04-24T05:27:39.907Z,87.07
2018-04-24T05:28:39.827Z,86.98
2018-04-24T05:29:39.821Z,87.07
2018-04-24T05:30:39.778Z,87.17
2018-04-24T05:31:39.829Z,87.17
2018-04-24T05:32:39.726Z,86.79
2018-04-24T05:33:39.741Z,87.07
2018-04-24T05:34:39.678Z,87.36
2018-04-24T05:35:39.802Z,86.69
2018-04-24T05:36:39.627Z,86.98
2018-04-24T05:37:39.663Z,86.88
2018-04-24T05:38:39.577Z,86.41
2018-04-24T05:39:39.574Z,86.60
2018-04-24T05:40:39.527Z,87.02
2018-04-24T05:41:39.592Z,86.69
2018-04-24T05:42:39.480Z,86.55
2018-04-24T05:43:39.498Z,86.07
2018-04-24T05:44:39.427Z,86.88
2018-04-24T05:45:39.508Z,86.26
2018-04-24T05:46:39.379Z,85.97
2018-04-24T05:47:39.418Z,86.26
2018-04-24T05:48:39.338Z,86.03
2018-04-24T05:49:39.328Z,86.03
2018-04-24T05:50:39.279Z,85.84
2018-04-24T05:51:39.342Z,85.74
2018-04-24T05:52:39.231Z,86.45
2018-04-24T05:53:39.251Z,85.88
2018-04-24T05:54:39.186Z,85.69
2018-04-24T05:55:39.265Z,85.41
2018-04-24T05:56:39.132Z,86.16
2018-04-24T05:57:39.175Z,85.69
2018-04-24T05:58:39.080Z,85.69
2018-04-24T05:59:39.084Z,85.78
2018-04-24T06:00:39.033Z,86.26
2018-04-24T06:01:39.097Z,86.45
2018-04-24T06:02:39.001Z,85.97
2018-04-24T06:03:38.999Z,85.60
2018-04-24T06:04:38.933Z,85.69
2018-04-24T06:05:39.023Z,86.26
2018-04-24T06:06:38.886Z,85.88
2018-04-24T06:07:38.932Z,85.60
2018-04-24T06:08:38.893Z,85.41
2018-04-24T06:09:38.840Z,85.41
2018-04-24T06:10:38.784Z,85.21
2018-04-24T06:11:38.850Z,85.31
2018-04-24T06:12:38.735Z,84.83
2018-04-24T06:13:38.764Z,85.50
2018-04-24T06:14:38.690Z,85.12
2018-04-24T06:15:38.776Z,85.21
2018-04-24T06:16:38.637Z,85.50
2018-04-24T06:17:38.685Z,85.31
2018-04-24T06:18:38.587Z,85.02
2018-04-24T06:19:38.595Z,85.12
2018-04-24T06:20:38.545Z,85.21
2018-04-24T06:21:38.609Z,85.69
2018-04-24T06:22:38.532Z,85.41
2018-04-24T06:23:38.526Z,85.60
2018-04-24T06:24:38.443Z,85.60
2018-04-24T06:25:38.533Z,85.50
2018-04-24T06:26:38.392Z,85.60
2018-04-24T06:27:38.444Z,85.12
2018-04-24T06:28:38.421Z,85.16
2018-04-24T06:29:38.354Z,84.55
2018-04-24T06:30:38.293Z,84.64
2018-04-24T06:31:38.363Z,84.97
2018-04-24T06:32:38.244Z,85.25
2018-04-24T06:33:38.276Z,85.45
2018-04-24T06:34:38.197Z,85.31
2018-04-24T06:35:38.285Z,84.88
2018-04-24T06:36:38.144Z,84.30
2018-04-24T06:37:38.195Z,84.59
2018-04-24T06:38:38.097Z,84.40
2018-04-24T06:39:38.106Z,84.11
2018-04-24T06:40:38.049Z,84.97
2018-04-24T06:41:38.118Z,84.78
2018-04-24T06:42:38.001Z,84.11
2018-04-24T06:43:38.028Z,83.92
2018-04-24T06:44:37.954Z,84.30
2018-04-24T06:45:38.041Z,83.73
2018-04-24T06:46:37.903Z,84.11
2018-04-24T06:47:37.950Z,84.01
2018-04-24T06:48:37.855Z,84.40
2018-04-24T06:49:37.865Z,83.44
2018-04-24T06:50:37.807Z,83.44
2018-04-24T06:51:37.873Z,83.73
2018-04-24T06:52:37.757Z,83.83
2018-04-24T06:53:37.782Z,83.83
2018-04-24T06:54:37.709Z,83.35
2018-04-24T06:55:37.794Z,83.54
2018-04-24T06:56:37.663Z,83.67
2018-04-24T06:57:37.705Z,82.91
2018-04-24T06:58:37.613Z,83.25
2018-04-24T06:59:37.616Z,82.30
2018-04-24T07:00:37.601Z,82.40
2018-04-24T07:01:37.628Z,82.97
2018-04-24T07:02:37.523Z,83.06
2018-04-24T07:03:37.538Z,83.25
2018-04-24T07:04:37.467Z,83.44
2018-04-24T07:05:37.551Z,83.16
2018-04-24T07:06:37.423Z,83.16
2018-04-24T07:07:37.458Z,83.06
2018-04-24T07:08:37.373Z,83.64
2018-04-24T07:09:37.370Z,83.06
2018-04-24T07:10:37.321Z,83.25
2018-04-24T07:11:37.384Z,82.97
2018-04-24T07:12:37.272Z,83.58
2018-04-24T07:13:37.289Z,83.25
2018-04-24T07:14:37.227Z,83.29
2018-04-24T07:15:37.306Z,82.91
2018-04-24T07:16:37.183Z,82.30
2018-04-24T07:17:37.214Z,83.35
2018-04-24T07:18:37.129Z,83.25
2018-04-24T07:19:37.123Z,83.44
2018-04-24T07:20:37.088Z,83.67
2018-04-24T07:21:37.137Z,83.96
2018-04-24T07:22:37.032Z,84.11
2018-04-24T07:23:37.047Z,83.77
2018-04-24T07:24:36.991Z,83.92
2018-04-24T07:25:37.060Z,83.96
2018-04-24T07:26:36.937Z,83.67
2018-04-24T07:27:36.970Z,83.87
2018-04-24T07:28:36.889Z,83.73
2018-04-24T07:29:36.881Z,83.25
2018-04-24T07:30:36.841Z,83.64
2018-04-24T07:31:36.893Z,84.11
2018-04-24T07:32:36.794Z,84.30
2018-04-24T07:33:36.804Z,84.59
2018-04-24T07:34:36.746Z,84.40
2018-04-24T07:35:36.816Z,84.59
2018-04-24T07:36:36.696Z,85.16
2018-04-24T07:37:36.735Z,84.69
2018-04-24T07:38:36.650Z,85.54
2018-04-24T07:39:36.742Z,85.73
2018-04-24T07:40:36.602Z,85.73
2018-04-24T07:41:36.646Z,85.83
2018-04-24T07:42:36.557Z,85.83
2018-04-24T07:43:36.557Z,87.02
2018-04-24T07:44:36.511Z,85.93
2018-04-24T07:45:36.585Z,85.93
2018-04-24T07:46:36.522Z,86.69
2018-04-24T07:47:36.479Z,87.45
2018-04-24T07:48:36.410Z,87.93
2018-04-24T07:49:36.493Z,88.02
2018-04-24T07:50:36.363Z,87.93
2018-04-24T07:51:36.402Z,88.50
2018-04-24T07:52:36.314Z,88.50
2018-04-24T07:53:36.312Z,88.78
2018-04-24T07:54:36.267Z,88.78
2018-04-24T07:55:36.328Z,88.40
2018-04-24T07:56:36.216Z,88.59
2018-04-24T07:57:36.239Z,89.26
2018-04-24T07:58:36.169Z,89.17
2018-04-24T07:59:36.250Z,89.45
2018-04-24T08:00:36.129Z,89.54
2018-04-24T08:01:36.162Z,89.64
2018-04-24T08:02:36.075Z,89.26
2018-04-24T08:03:36.070Z,89.93
2018-04-24T08:04:36.025Z,89.36
2018-04-24T08:05:36.086Z,89.45
2018-04-24T08:06:35.978Z,88.88
2018-04-24T08:07:35.991Z,88.83
2018-04-24T08:08:35.933Z,89.02
2018-04-24T08:09:36.008Z,88.83
2018-04-24T08:10:35.884Z,89.40
2018-04-24T08:11:35.919Z,88.73
2018-04-24T08:12:35.833Z,88.54
2018-04-24T08:13:35.825Z,88.16
2018-04-24T08:14:35.785Z,88.73
2018-04-24T08:15:35.837Z,89.74
2018-04-24T08:16:35.755Z,89.54
2018-04-24T08:17:35.713Z,90.79
2018-04-24T08:18:35.687Z,90.69
2018-04-24T08:19:35.759Z,91.07
2018-04-24T08:20:35.642Z,91.27
2018-04-24T08:21:35.668Z,92.03
2018-04-24T08:22:35.675Z,91.55
2018-04-24T08:23:35.570Z,90.17
2018-04-24T08:24:35.586Z,90.45
2018-04-24T08:25:35.521Z,89.97
2018-04-24T08:26:35.596Z,90.26
2018-04-24T08:27:35.475Z,90.26
2018-04-24T08:28:35.505Z,89.74
2018-04-24T08:29:35.429Z,89.93
2018-04-24T08:30:35.420Z,89.93
2018-04-24T08:31:35.385Z,89.74
2018-04-24T08:32:35.432Z,90.12
2018-04-24T08:33:35.375Z,90.12
2018-04-24T08:34:35.348Z,89.93
2018-04-24T08:35:35.284Z,90.22
2018-04-24T08:36:35.356Z,90.50
2018-04-24T08:37:35.235Z,91.41
2018-04-24T08:38:35.262Z,91.50
2018-04-24T08:39:35.192Z,92.17
2018-04-24T08:40:35.275Z,92.17
2018-04-24T08:41:35.139Z,92.46
2018-04-24T08:42:35.188Z,93.17
2018-04-24T08:43:35.090Z,93.93
2018-04-24T08:44:35.096Z,94.89
2018-04-24T08:45:35.043Z,94.70
2018-04-24T08:46:35.109Z,96.13
2018-04-24T08:47:34.997Z,96.37
2018-04-24T08:48:35.022Z,95.75
2018-04-24T08:49:34.954Z,95.56
2018-04-24T08:50:35.032Z,95.56
2018-04-24T08:51:34.898Z,96.03
2018-04-24T08:52:34.943Z,96.32
2018-04-24T08:53:34.852Z,96.37
2018-04-24T08:54:34.858Z,96.08
2018-04-24T08:55:34.802Z,95.41
2018-04-24T08:56:34.867Z,95.79
2018-04-24T08:57:34.757Z,96.46
2018-04-24T08:58:34.776Z,95.79
2018-04-24T08:59:34.807Z,95.32
2018-04-24T09:00:34.786Z,95.22
2018-04-24T09:01:34.662Z,94.84
2018-04-24T09:02:34.694Z,95.22
2018-04-24T09:03:34.612Z,95.98
2018-04-24T09:04:34.607Z,95.12
2018-04-24T09:05:34.563Z,95.12
2018-04-24T09:06:34.667Z,94.84
2018-04-24T09:07:34.519Z,95.79
2018-04-24T09:08:34.577Z,95.70
2018-04-24T09:09:34.476Z,95.22
2018-04-24T09:10:34.460Z,95.79
2018-04-24T09:11:34.494Z,95.51
2018-04-24T09:12:34.395Z,96.37
2018-04-24T09:13:34.508Z,95.79
2018-04-24T09:14:34.362Z,94.84
2018-04-24T09:15:34.421Z,95.41
2018-04-24T09:16:34.306Z,95.61
2018-04-24T09:17:34.435Z,96.66
2018-04-24T09:18:34.261Z,96.17
2018-04-24T09:19:34.346Z,94.89
2018-04-24T09:20:34.210Z,95.46
2018-04-24T09:21:34.258Z,94.31
2018-04-24T09:22:34.161Z,95.08
2018-04-24T09:23:34.272Z,94.51
2018-04-24T09:24:34.115Z,93.74
2018-04-24T09:25:34.184Z,93.55
2018-04-24T09:26:34.077Z,93.65
2018-04-24T09:27:34.197Z,93.55
2018-04-24T09:28:34.020Z,93.46
2018-04-24T09:29:34.110Z,94.03
2018-04-24T09:30:33.971Z,92.69
2018-04-24T09:31:34.124Z,93.55
2018-04-24T09:32:33.923Z,93.55
2018-04-24T09:33:34.068Z,93.65
2018-04-24T09:34:33.882Z,93.26
2018-04-24T09:35:33.947Z,93.17
2018-04-24T09:36:33.829Z,94.41
2018-04-24T09:37:33.960Z,93.07
2018-04-24T09:38:33.783Z,93.17
2018-04-24T09:39:33.867Z,93.46
2018-04-24T09:40:33.734Z,93.07
2018-04-24T09:41:33.783Z,92.50
2018-04-24T09:42:33.688Z,92.69
2018-04-24T09:43:33.695Z,92.69
2018-04-24T09:44:33.643Z,92.69
2018-04-24T09:45:33.709Z,92.60
2018-04-24T09:46:33.600Z,92.88
2018-04-24T09:47:33.620Z,92.69
2018-04-24T09:48:33.552Z,92.60
2018-04-24T09:49:33.641Z,92.21
2018-04-24T09:50:33.501Z,92.45
2018-04-24T09:51:33.545Z,93.12
2018-04-24T09:52:33.453Z,92.36
2018-04-24T09:53:33.458Z,91.88
2018-04-24T09:54:33.408Z,91.97
2018-04-24T09:55:33.472Z,91.21
2018-04-24T09:56:33.362Z,91.40
2018-04-24T09:57:33.383Z,91.02
2018-04-24T09:58:33.314Z,91.97
2018-04-24T09:59:33.396Z,91.59
2018-04-24T10:00:33.269Z,91.97
2018-04-24T10:01:33.309Z,92.64
2018-04-24T10:02:33.221Z,93.02
2018-04-24T10:03:33.219Z,91.78
2018-04-24T10:04:33.180Z,92.16
2018-04-24T10:05:33.234Z,91.97
2018-04-24T10:06:33.127Z,91.64
2018-04-24T10:07:33.146Z,91.54
2018-04-24T10:08:33.085Z,91.54
2018-04-24T10:09:33.166Z,91.16
2018-04-24T10:10:33.035Z,91.02
2018-04-24T10:11:33.063Z,90.78
2018-04-24T10:12:32.988Z,90.16
2018-04-24T10:13:33.003Z,90.97
2018-04-24T10:14:32.948Z,90.45
2018-04-24T10:15:33.001Z,91.11
2018-04-24T10:16:32.895Z,90.64
2018-04-24T10:17:32.909Z,90.45
2018-04-24T10:18:32.852Z,91.21
2018-04-24T10:19:32.920Z,91.40
2018-04-24T10:20:32.810Z,91.78
2018-04-24T10:21:32.844Z,91.88
2018-04-24T10:22:32.757Z,91.50
2018-04-24T10:23:32.752Z,91.02
2018-04-24T10:24:32.712Z,91.11
2018-04-24T10:25:32.763Z,91.50
2018-04-24T10:26:32.667Z,91.11
2018-04-24T10:27:32.691Z,91.97
2018-04-24T10:28:32.622Z,92.07
2018-04-24T10:29:32.687Z,90.83
2018-04-24T10:30:32.577Z,91.02
2018-04-24T10:31:32.597Z,91.78
2018-04-24T10:32:32.527Z,92.16
2018-04-24T10:33:32.613Z,91.40
2018-04-24T10:34:32.481Z,91.11
2018-04-24T10:35:32.526Z,91.54
2018-04-24T10:36:32.439Z,91.16
2018-04-24T10:37:32.485Z,90.01
2018-04-24T10:38:32.387Z,89.82
2018-04-24T10:39:32.451Z,89.73
2018-04-24T10:40:32.346Z,90.11
2018-04-24T10:41:32.362Z,90.20
2018-04-24T10:42:32.297Z,89.63
2018-04-24T10:43:32.378Z,89.15
2018-04-24T10:44:32.256Z,89.53
2018-04-24T10:45:32.287Z,89.63
2018-04-24T10:46:32.206Z,89.63
2018-04-24T10:47:32.202Z,88.96
2018-04-24T10:48:32.156Z,88.10
2018-04-24T10:49:32.226Z,88.77
2018-04-24T10:50:32.115Z,88.77
2018-04-24T10:51:32.221Z,88.77
2018-04-24T10:52:32.086Z,87.91
2018-04-24T10:53:32.142Z,88.29
2018-04-24T10:54:32.020Z,88.58
2018-04-24T10:55:32.062Z,88.68
2018-04-24T10:56:31.975Z,89.25
2018-04-24T10:57:32.067Z,88.68
2018-04-24T10:58:31.929Z,88.29
2018-04-24T10:59:31.979Z,88.20
2018-04-24T11:00:31.884Z,88.58
2018-04-24T11:01:31.891Z,88.87
2018-04-24T11:02:31.840Z,88.29
2018-04-24T11:03:31.904Z,88.29
2018-04-24T11:04:31.800Z,88.29
2018-04-24T11:05:31.814Z,88.87
2018-04-24T11:06:31.793Z,88.53
2018-04-24T11:07:31.831Z,87.48
2018-04-24T11:08:31.703Z,87.95
2018-04-24T11:09:31.740Z,87.19
2018-04-24T11:10:31.655Z,87.66
2018-04-24T11:11:31.658Z,88.15
2018-04-24T11:12:31.608Z,87.66
2018-04-24T11:13:31.666Z,87.09
2018-04-24T11:14:31.566Z,87.29
2018-04-24T11:15:31.580Z,87.09
2018-04-24T11:16:31.523Z,86.71
2018-04-24T11:17:31.602Z,86.52
2018-04-24T11:18:31.476Z,86.14
2018-04-24T11:19:31.507Z,86.04
2018-04-24T11:20:31.430Z,86.43
2018-04-24T11:21:31.517Z,86.23
2018-04-24T11:22:31.383Z,86.90
2018-04-24T11:23:31.430Z,86.33
2018-04-24T11:24:31.338Z,86.14
2018-04-24T11:25:31.343Z,85.75
2018-04-24T11:26:31.292Z,86.04
2018-04-24T11:27:31.356Z,86.52
2018-04-24T11:28:31.247Z,85.85
2018-04-24T11:29:31.268Z,87.00
2018-04-24T11:30:31.205Z,87.00
2018-04-24T11:31:31.282Z,86.04
2018-04-24T11:32:31.180Z,86.04
2018-04-24T11:33:31.195Z,85.09
2018-04-24T11:34:31.190Z,86.04
2018-04-24T11:35:31.104Z,85.85
2018-04-24T11:36:31.133Z,85.75
2018-04-24T11:37:31.124Z,85.75
2018-04-24T11:38:31.023Z,85.85
2018-04-24T11:39:31.032Z,85.38
2018-04-24T11:40:30.978Z,85.47
2018-04-24T11:41:31.122Z,85.09
2018-04-24T11:42:30.933Z,85.85
2018-04-24T11:43:30.958Z,85.18
2018-04-24T11:44:30.890Z,84.75
2018-04-24T11:45:30.972Z,84.94
2018-04-24T11:46:30.844Z,84.65
2018-04-24T11:47:30.884Z,84.27
2018-04-24T11:48:30.801Z,84.36
2018-04-24T11:49:30.849Z,83.89
2018-04-24T11:50:30.755Z,83.31
2018-04-24T11:51:30.809Z,84.55
2018-04-24T11:52:30.709Z,84.02
2018-04-24T11:53:30.725Z,83.64
2018-04-24T11:54:30.663Z,82.78
2018-04-24T11:55:30.738Z,82.78
2018-04-24T11:56:30.621Z,81.63
2018-04-24T11:57:30.648Z,81.38
2018-04-24T11:58:30.585Z,81.67
2018-04-24T11:59:30.659Z,80.43
2018-04-24T12:00:30.530Z,79.91
2018-04-24T12:01:30.578Z,81.29
2018-04-24T12:02:30.516Z,80.81
2018-04-24T12:03:30.484Z,80.04
2018-04-24T12:04:30.448Z,81.00
2018-04-24T12:05:30.496Z,79.95
2018-04-24T12:06:30.401Z,80.04
2018-04-24T12:07:30.409Z,78.99
2018-04-24T12:08:30.355Z,79.28
2018-04-24T12:09:30.422Z,78.89
2018-04-24T12:10:30.314Z,78.89
2018-04-24T12:11:30.332Z,79.28
2018-04-24T12:12:30.269Z,79.28
2018-04-24T12:13:30.347Z,78.70
2018-04-24T12:14:30.224Z,78.51
2018-04-24T12:15:30.257Z,78.80
2018-04-24T12:16:30.181Z,78.32
2018-04-24T12:17:30.275Z,77.84
2018-04-24T12:18:30.136Z,77.94
2018-04-24T12:19:30.185Z,78.32
2018-04-24T12:20:30.098Z,78.99
2018-04-24T12:21:30.099Z,78.22
2018-04-24T12:22:30.054Z,77.26
2018-04-24T12:23:30.110Z,78.13
2018-04-24T12:24:30.021Z,77.84
2018-04-24T12:25:30.021Z,78.19
2018-04-24T12:26:29.965Z,78.66
2018-04-24T12:27:30.035Z,78.51
2018-04-24T12:28:29.927Z,78.03
2018-04-24T12:29:29.947Z,77.94
2018-04-24T12:30:29.899Z,78.64
2018-04-24T12:31:29.961Z,77.50
2018-04-24T12:32:29.827Z,77.50
2018-04-24T12:33:29.874Z,77.31
2018-04-24T12:34:29.799Z,76.82
2018-04-24T12:35:29.787Z,76.64
2018-04-24T12:36:29.749Z,77.50
2018-04-24T12:37:29.804Z,76.73
2018-04-24T12:38:29.709Z,76.44
2018-04-24T12:39:29.716Z,75.90
2018-04-24T12:40:29.667Z,75.62
2018-04-24T12:41:29.727Z,76.00
2018-04-24T12:42:29.626Z,76.77
2018-04-24T12:43:29.640Z,74.89
2018-04-24T12:44:29.581Z,75.75
2018-04-24T12:45:29.655Z,74.22
2018-04-24T12:46:29.542Z,74.41
2018-04-24T12:47:29.565Z,75.08
2018-04-24T12:48:29.498Z,74.22
2018-04-24T12:49:29.579Z,74.69
2018-04-24T12:50:29.458Z,74.41
2018-04-24T12:51:29.490Z,73.26
2018-04-24T12:52:29.415Z,73.49